Terminal Aerodrome Forecast
Issued by NWS

Home | Current Version | Previous Version | Graphics & Text | Print | Product List | Glossary On
Versions: 1 2 3 4 5 6 7 8 9 10 11 12 13 14 15 16 17 18 19 20 21 22
000
FTUS43 KTOP 171700
TAFMHK
TAF
KMHK 171730Z 1718/1818 14008KT P6SM SCT040 BKN100
     FM172100 13008KT P6SM VCTS BKN050CB
     FM180200 10004KT P6SM BKN200
     FM180600 11005KT P6SM VCTS BKN050CB
     FM180900 12004KT 5SM -TSRA OVC040CB=

USA.gov is the U.S. government's official web portal to all federal, state and local government web resources and services.